createdAt,value
2019-03-22T00:02:04.974Z,57.57
2019-03-22T00:04:33.864Z,61.97
2019-03-22T00:07:02.881Z,57.87
2019-03-22T00:09:31.802Z,62.27
2019-03-22T00:12:00.767Z,62.50
2019-03-22T00:14:29.690Z,66.97
2019-03-22T00:16:58.976Z,67.57
2019-03-22T00:19:27.845Z,57.80
2019-03-22T00:21:57.744Z,66.63
2019-03-22T00:24:26.739Z,57.87
2019-03-22T00:26:55.633Z,63.40
2019-03-22T00:29:25.022Z,65.43
2019-03-22T00:31:54.102Z,58.77
2019-03-22T00:34:23.199Z,63.93
2019-03-22T00:36:52.373Z,59.77
2019-03-22T00:39:21.423Z,59.47
2019-03-22T00:41:50.391Z,54.17
2019-03-22T00:44:19.371Z,63.03
2019-03-22T00:46:48.421Z,57.97
2019-03-22T00:49:17.450Z,56.20
2019-03-22T00:51:46.372Z,63.10
2019-03-22T00:54:15.314Z,58.67
2019-03-22T00:56:44.252Z,59.97
2019-03-22T00:59:13.388Z,57.40
2019-03-22T01:01:42.765Z,59.67
2019-03-22T01:04:11.754Z,66.17
2019-03-22T01:06:40.948Z,61.77
2019-03-22T01:09:10.306Z,59.03
2019-03-22T01:11:41.109Z,63.80
2019-03-22T01:14:10.045Z,61.80
2019-03-22T01:16:38.966Z,71.03
2019-03-22T01:19:08.688Z,61.63
2019-03-22T01:21:37.603Z,75.03
2019-03-22T01:24:06.645Z,70.97
2019-03-22T01:26:35.553Z,72.50
2019-03-22T01:29:05.527Z,76.93
2019-03-22T01:31:34.443Z,69.10
2019-03-22T01:34:03.465Z,71.77
2019-03-22T01:36:32.479Z,67.70
2019-03-22T01:39:01.331Z,67.57
2019-03-22T01:41:30.258Z,70.03
2019-03-22T01:43:59.138Z,71.30
2019-03-22T01:46:28.234Z,64.73
2019-03-22T01:48:57.184Z,70.40
2019-03-22T01:51:26.202Z,76.23
2019-03-22T01:53:55.593Z,71.83
2019-03-22T01:56:24.647Z,75.53
2019-03-22T01:58:53.528Z,63.50
2019-03-22T02:01:22.826Z,68.97
2019-03-22T02:03:52.089Z,72.13
2019-03-22T02:06:21.007Z,72.40
2019-03-22T02:08:50.583Z,70.80
2019-03-22T02:11:19.507Z,67.43
2019-03-22T02:13:48.455Z,69.40
2019-03-22T02:16:17.331Z,68.20
2019-03-22T02:18:46.530Z,75.87
2019-03-22T02:21:15.389Z,80.30
2019-03-22T02:23:44.484Z,79.83
2019-03-22T02:26:13.519Z,76.77
2019-03-22T02:28:42.841Z,85.13
2019-03-22T02:31:11.679Z,86.57
2019-03-22T02:33:40.607Z,86.73
2019-03-22T02:36:10.334Z,79.33
2019-03-22T02:38:39.403Z,89.70
2019-03-22T02:41:08.663Z,85.17
2019-03-22T02:43:37.642Z,88.40
2019-03-22T02:46:06.529Z,85.83
2019-03-22T02:48:35.766Z,88.03
2019-03-22T02:51:04.711Z,96.03
2019-03-22T02:53:33.755Z,88.17
2019-03-22T02:56:02.736Z,82.67
2019-03-22T02:58:32.348Z,96.33
2019-03-22T03:01:01.494Z,91.07
2019-03-22T03:03:30.559Z,85.53
2019-03-22T03:05:59.469Z,89.50
2019-03-22T03:08:28.407Z,79.33
2019-03-22T03:10:57.359Z,83.60
2019-03-22T03:13:26.362Z,89.70
2019-03-22T03:15:55.364Z,83.90
2019-03-22T03:18:24.496Z,83.67
2019-03-22T03:20:53.522Z,86.17
2019-03-22T03:23:22.809Z,86.93
2019-03-22T03:25:51.725Z,92.40
2019-03-22T03:28:35.641Z,82.60
2019-03-22T03:30:51.656Z,92.47
2019-03-22T03:33:20.637Z,87.83
2019-03-22T03:35:49.610Z,80.90
2019-03-22T03:38:18.483Z,86.57
2019-03-22T03:40:47.426Z,85.30
2019-03-22T03:43:16.323Z,86.47
2019-03-22T03:45:45.759Z,74.17
2019-03-22T03:48:14.677Z,87.57
2019-03-22T03:50:43.664Z,87.63
2019-03-22T03:53:12.684Z,88.03
2019-03-22T03:55:41.597Z,81.23
2019-03-22T03:58:10.567Z,84.27
2019-03-22T04:00:39.482Z,87.40
2019-03-22T04:03:08.787Z,83.93
2019-03-22T04:05:37.712Z,82.70
2019-03-22T04:08:06.644Z,80.60
2019-03-22T04:10:35.541Z,81.20
2019-03-22T04:13:04.649Z,78.67
2019-03-22T04:15:33.657Z,78.57
2019-03-22T04:18:02.638Z,86.87
2019-03-22T04:20:31.782Z,76.77
2019-03-22T04:23:00.981Z,87.73
2019-03-22T04:25:30.306Z,87.87
2019-03-22T04:27:59.718Z,77.20
2019-03-22T04:30:28.679Z,77.43
2019-03-22T04:32:58.505Z,75.67
2019-03-22T04:35:27.429Z,84.90
2019-03-22T04:37:56.371Z,81.40
2019-03-22T04:40:26.962Z,84.27
2019-03-22T04:42:56.125Z,84.37
2019-03-22T04:45:29.227Z,90.37
2019-03-22T04:48:13.665Z,89.80
2019-03-22T04:50:45.991Z,92.50
2019-03-22T04:53:21.884Z,91.63
2019-03-22T04:55:57.610Z,95.67
2019-03-22T04:58:28.741Z,94.37
2019-03-22T05:00:59.761Z,90.37
2019-03-22T05:03:31.144Z,83.93
2019-03-22T05:06:02.360Z,94.53
2019-03-22T05:08:37.290Z,96.57
2019-03-22T05:11:10.938Z,95.80
2019-03-22T05:13:44.403Z,95.57
2019-03-22T05:16:16.567Z,96.87
2019-03-22T05:18:49.913Z,100.80
2019-03-22T05:21:25.077Z,92.50
2019-03-22T05:24:00.806Z,98.83
2019-03-22T05:26:33.906Z,94.80
2019-03-22T05:29:05.127Z,96.97
2019-03-22T05:31:59.495Z,100.77
2019-03-22T05:34:28.798Z,103.30
2019-03-22T05:36:57.741Z,101.83
2019-03-22T05:39:26.649Z,103.93
2019-03-22T05:41:55.537Z,100.00
2019-03-22T05:44:24.499Z,109.80
2019-03-22T05:46:53.473Z,119.47
2019-03-22T05:49:22.431Z,100.60
2019-03-22T05:51:51.392Z,107.60
2019-03-22T05:54:20.325Z,106.50
2019-03-22T05:56:49.280Z,113.37
2019-03-22T05:59:18.304Z,111.30
2019-03-22T06:01:47.497Z,118.07
2019-03-22T06:04:16.422Z,118.23
2019-03-22T06:06:45.419Z,120.93
2019-03-22T06:09:14.784Z,119.97
2019-03-22T06:11:43.737Z,123.70
2019-03-22T06:14:12.645Z,122.83
2019-03-22T06:16:41.544Z,109.50
2019-03-22T06:19:10.470Z,114.73
2019-03-22T06:21:39.573Z,119.00
2019-03-22T06:24:08.875Z,128.33
2019-03-22T06:26:37.741Z,127.47
2019-03-22T06:29:06.607Z,114.23
2019-03-22T06:31:35.561Z,107.60
2019-03-22T06:34:04.608Z,119.87
2019-03-22T06:36:34.074Z,109.57
2019-03-22T06:39:05.184Z,95.00
2019-03-22T06:41:34.325Z,90.30
2019-03-22T06:44:04.537Z,89.67
2019-03-22T06:46:33.488Z,91.67
2019-03-22T06:49:03.339Z,97.07
2019-03-22T06:51:32.663Z,104.47
2019-03-22T06:54:01.557Z,90.10
2019-03-22T06:56:30.627Z,96.30
2019-03-22T06:59:01.155Z,102.67
2019-03-22T07:01:30.080Z,98.03
2019-03-22T07:03:59.052Z,110.73
2019-03-22T07:06:27.973Z,90.87
2019-03-22T07:08:56.829Z,94.53
2019-03-22T07:11:26.082Z,94.57
2019-03-22T07:13:55.099Z,89.03
2019-03-22T07:16:24.140Z,93.80
2019-03-22T07:18:53.116Z,95.10
2019-03-22T07:21:22.211Z,88.00
2019-03-22T07:23:51.213Z,89.37
2019-03-22T07:26:20.277Z,85.70
2019-03-22T07:28:49.185Z,90.47
2019-03-22T07:31:18.225Z,80.23
2019-03-22T07:33:47.201Z,93.83
2019-03-22T07:36:16.274Z,89.23
2019-03-22T07:38:45.161Z,91.60
2019-03-22T07:41:14.135Z,83.13
2019-03-22T07:43:43.052Z,98.53
2019-03-22T07:46:12.182Z,91.97
2019-03-22T07:48:41.299Z,87.80
2019-03-22T07:51:10.235Z,91.30
2019-03-22T07:53:39.190Z,85.20
2019-03-22T07:56:08.219Z,90.53
2019-03-22T07:58:37.201Z,88.33
2019-03-22T08:01:06.244Z,81.83
2019-03-22T08:03:35.386Z,86.57
2019-03-22T08:06:04.703Z,81.67
2019-03-22T08:08:33.784Z,85.13
2019-03-22T08:11:03.155Z,85.00
2019-03-22T08:13:32.158Z,83.67
2019-03-22T08:16:01.198Z,83.60
2019-03-22T08:18:30.795Z,75.53
2019-03-22T08:20:59.958Z,74.70
2019-03-22T08:23:29.030Z,83.00
2019-03-22T08:25:57.983Z,79.17
2019-03-22T08:28:26.944Z,72.73
2019-03-22T08:30:55.934Z,72.97
2019-03-22T08:33:24.911Z,73.97
2019-03-22T08:35:53.839Z,75.87
2019-03-22T08:38:22.905Z,73.57
2019-03-22T08:40:51.860Z,77.47
2019-03-22T08:43:20.838Z,74.17
2019-03-22T08:45:49.977Z,74.70
2019-03-22T08:48:19.111Z,76.03
2019-03-22T08:50:48.562Z,72.23
2019-03-22T08:53:17.792Z,73.90
2019-03-22T08:55:47.059Z,73.23
2019-03-22T08:58:18.591Z,72.93
2019-03-22T09:00:57.517Z,83.23
2019-03-22T09:03:17.916Z,74.17
2019-03-22T09:05:46.891Z,76.83
2019-03-22T09:08:16.181Z,76.00
2019-03-22T09:10:45.334Z,73.13
2019-03-22T09:13:14.223Z,68.90
2019-03-22T09:15:43.271Z,69.87
2019-03-22T09:18:14.188Z,66.80
2019-03-22T09:20:43.071Z,65.40
2019-03-22T09:23:12.059Z,62.53
2019-03-22T09:25:41.182Z,61.60
2019-03-22T09:28:10.559Z,69.50
2019-03-22T09:30:39.746Z,61.03
2019-03-22T09:33:08.938Z,61.33
2019-03-22T09:35:38.171Z,66.13
2019-03-22T09:38:13.241Z,64.60
2019-03-22T09:40:38.851Z,61.90
2019-03-22T09:43:08.225Z,63.47
2019-03-22T09:45:37.381Z,59.07
2019-03-22T09:48:06.746Z,62.80
2019-03-22T09:50:35.770Z,70.20
2019-03-22T09:53:04.883Z,66.17
2019-03-22T09:55:33.763Z,64.13
2019-03-22T09:58:02.899Z,69.00
2019-03-22T10:00:33.619Z,67.50
2019-03-22T10:03:04.923Z,66.23
2019-03-22T10:05:33.925Z,62.73
2019-03-22T10:08:04.730Z,64.60
2019-03-22T10:10:34.517Z,64.77
2019-03-22T10:13:03.766Z,67.63
2019-03-22T10:15:34.123Z,66.97
2019-03-22T10:18:03.835Z,62.40
2019-03-22T10:20:32.920Z,62.37
2019-03-22T10:23:02.632Z,63.57
2019-03-22T10:25:31.571Z,59.40
2019-03-22T10:28:00.462Z,71.03
2019-03-22T10:30:29.985Z,62.63
2019-03-22T10:32:58.970Z,65.93
2019-03-22T10:35:29.406Z,64.10
2019-03-22T10:38:00.881Z,62.97
2019-03-22T10:40:29.602Z,61.30
2019-03-22T10:42:58.622Z,70.23
2019-03-22T10:45:27.938Z,64.07
2019-03-22T10:47:56.823Z,64.00
2019-03-22T10:50:25.719Z,65.87
2019-03-22T10:52:56.113Z,68.03
2019-03-22T10:55:30.218Z,68.10
2019-03-22T10:57:55.974Z,68.50
2019-03-22T11:00:24.947Z,71.20
2019-03-22T11:02:54.282Z,65.93
2019-03-22T11:05:23.257Z,62.27
2019-03-22T11:07:52.201Z,65.07
2019-03-22T11:10:21.736Z,64.70
2019-03-22T11:12:51.351Z,66.90
2019-03-22T11:15:20.255Z,66.40
2019-03-22T11:17:49.314Z,61.20
2019-03-22T11:20:18.304Z,63.70
2019-03-22T11:22:47.245Z,66.93
2019-03-22T11:25:16.143Z,66.17
2019-03-22T11:27:45.089Z,65.70
2019-03-22T11:30:17.641Z,65.60
2019-03-22T11:32:47.792Z,64.07
2019-03-22T11:35:16.828Z,62.27
2019-03-22T11:37:46.058Z,64.30
2019-03-22T11:40:16.693Z,61.90
2019-03-22T11:42:45.546Z,58.70
2019-03-22T11:45:17.679Z,61.97
2019-03-22T11:47:46.905Z,61.47
2019-03-22T11:50:16.125Z,59.23
2019-03-22T11:52:45.072Z,61.50
2019-03-22T11:55:14.237Z,61.33
2019-03-22T11:57:43.115Z,61.83
2019-03-22T12:00:18.393Z,59.83
2019-03-22T12:02:49.138Z,55.00
2019-03-22T12:05:20.196Z,52.43
2019-03-22T12:07:49.584Z,52.93
2019-03-22T12:10:19.783Z,51.13
2019-03-22T12:12:49.143Z,48.73
2019-03-22T12:15:22.924Z,49.43
2019-03-22T12:17:51.918Z,51.77
2019-03-22T12:20:21.518Z,47.17
2019-03-22T12:22:50.716Z,53.60
2019-03-22T12:25:20.212Z,53.27
2019-03-22T12:27:49.100Z,44.97
2019-03-22T12:30:18.316Z,55.30
2019-03-22T12:32:47.362Z,49.60
2019-03-22T12:35:17.587Z,48.73
2019-03-22T12:37:46.591Z,48.00
2019-03-22T12:40:16.855Z,47.03
2019-03-22T12:42:45.834Z,41.27
2019-03-22T12:45:19.751Z,43.20
2019-03-22T12:47:49.050Z,43.53
2019-03-22T12:50:18.379Z,47.97
2019-03-22T12:52:47.343Z,42.17
2019-03-22T12:55:16.464Z,40.63
2019-03-22T12:57:46.113Z,47.80
2019-03-22T13:00:18.553Z,39.70
2019-03-22T13:02:47.761Z,37.33
2019-03-22T13:05:17.641Z,35.57
2019-03-22T13:07:46.857Z,41.60
2019-03-22T13:10:17.819Z,37.43
2019-03-22T13:12:46.809Z,34.20
2019-03-22T13:15:15.738Z,33.57
2019-03-22T13:17:44.847Z,36.63
2019-03-22T13:20:14.592Z,35.10
2019-03-22T13:22:43.683Z,36.30
2019-03-22T13:25:14.233Z,32.43
2019-03-22T13:27:44.818Z,34.13
2019-03-22T13:30:30.291Z,37.00
2019-03-22T13:32:59.296Z,30.33
2019-03-22T13:35:28.456Z,35.83
2019-03-22T13:37:57.370Z,32.53
2019-03-22T13:40:26.664Z,32.30
2019-03-22T13:42:55.591Z,34.03
2019-03-22T13:45:25.105Z,31.83
2019-03-22T13:47:54.034Z,29.73
2019-03-22T13:50:23.625Z,30.60
2019-03-22T13:52:52.528Z,26.57
2019-03-22T13:55:21.768Z,24.63
2019-03-22T13:57:50.677Z,24.97
2019-03-22T14:00:19.900Z,26.80
2019-03-22T14:02:50.020Z,32.70
2019-03-22T14:05:18.942Z,32.10
2019-03-22T14:07:48.970Z,31.43
2019-03-22T14:10:31.148Z,29.67
2019-03-22T14:13:01.272Z,28.37
2019-03-22T14:15:30.233Z,34.50
2019-03-22T14:17:59.174Z,28.37
2019-03-22T14:20:28.487Z,24.43
2019-03-22T14:22:57.611Z,36.57
2019-03-22T14:25:26.780Z,27.83
2019-03-22T14:27:55.744Z,25.37
2019-03-22T14:30:24.717Z,30.27
2019-03-22T14:32:54.167Z,34.30
2019-03-22T14:35:23.054Z,28.13
2019-03-22T14:37:51.952Z,33.17
2019-03-22T14:40:20.928Z,40.47
2019-03-22T14:42:50.121Z,26.03
2019-03-22T14:45:19.145Z,50.40
2019-03-22T14:47:48.426Z,44.50
2019-03-22T14:50:17.500Z,45.80
2019-03-22T14:52:46.391Z,30.13
2019-03-22T14:55:15.474Z,29.27
2019-03-22T14:57:49.250Z,29.20
2019-03-22T15:00:15.211Z,30.90
2019-03-22T15:02:44.174Z,29.73
2019-03-22T15:05:13.205Z,36.20
2019-03-22T15:07:42.105Z,34.07
2019-03-22T15:10:11.531Z,32.33
2019-03-22T15:12:40.524Z,30.10
2019-03-22T15:15:47.774Z,37.73
2019-03-22T15:18:36.219Z,35.70
2019-03-22T15:21:24.667Z,35.50
2019-03-22T15:24:13.448Z,35.13
2019-03-22T15:26:55.836Z,36.60
2019-03-22T15:29:47.332Z,36.30
2019-03-22T15:32:34.526Z,38.87
2019-03-22T15:38:13.302Z,40.97
2019-03-22T15:40:42.763Z,36.03
2019-03-22T15:43:11.681Z,32.87
2019-03-22T15:45:40.901Z,38.33
2019-03-22T15:48:10.111Z,34.23
2019-03-22T15:50:41.020Z,36.33
2019-03-22T15:53:09.966Z,36.70
2019-03-22T15:55:38.851Z,33.73
2019-03-22T15:58:08.002Z,36.40
2019-03-22T16:00:37.382Z,34.83
2019-03-22T16:03:06.279Z,34.50
2019-03-22T16:05:35.212Z,37.07
2019-03-22T16:08:04.148Z,30.60
2019-03-22T16:10:33.116Z,34.40
2019-03-22T16:13:02.222Z,36.90
2019-03-22T16:15:31.158Z,34.10
2019-03-22T16:18:00.051Z,29.77
2019-03-22T16:20:28.969Z,31.13
2019-03-22T16:22:57.834Z,32.40
2019-03-22T16:25:26.891Z,31.50
2019-03-22T16:27:56.058Z,29.43
2019-03-22T16:30:24.978Z,31.30
2019-03-22T16:32:53.847Z,33.17
2019-03-22T16:35:22.793Z,31.83
2019-03-22T16:37:51.727Z,32.33
2019-03-22T16:40:24.390Z,30.70
2019-03-22T16:42:51.527Z,29.03
2019-03-22T16:45:38.733Z,29.27
2019-03-22T16:48:07.774Z,29.07
2019-03-22T16:50:36.663Z,28.33
2019-03-22T16:53:05.747Z,27.70
2019-03-22T16:55:34.637Z,27.03
2019-03-22T16:58:04.612Z,31.90
2019-03-22T17:00:33.596Z,28.97
2019-03-22T17:03:02.792Z,31.40
2019-03-22T17:05:32.153Z,28.70
2019-03-22T17:08:01.289Z,29.20
2019-03-22T17:10:30.307Z,37.47
2019-03-22T17:12:59.328Z,32.57
2019-03-22T17:15:28.299Z,30.93
2019-03-22T17:17:57.218Z,29.73
2019-03-22T17:20:26.637Z,32.93
2019-03-22T17:22:55.869Z,31.93
2019-03-22T17:25:24.775Z,30.50
2019-03-22T17:27:53.920Z,29.77
2019-03-22T17:30:22.816Z,30.90
2019-03-22T17:32:51.753Z,28.93
2019-03-22T17:35:20.866Z,28.77
2019-03-22T17:37:49.860Z,29.20
2019-03-22T17:40:18.756Z,26.60
2019-03-22T17:42:47.660Z,30.20
2019-03-22T17:45:17.595Z,28.70
2019-03-22T17:47:46.626Z,27.47
2019-03-22T17:50:16.091Z,27.83
2019-03-22T17:52:45.043Z,32.00
2019-03-22T17:55:14.559Z,24.30
2019-03-22T17:57:43.498Z,29.60
2019-03-22T18:00:14.241Z,28.63
2019-03-22T18:02:43.760Z,28.93
2019-03-22T18:05:12.796Z,32.93
2019-03-22T18:07:41.658Z,30.63
2019-03-22T18:10:11.188Z,32.37
2019-03-22T18:12:40.142Z,30.60
2019-03-22T18:15:10.249Z,31.80
2019-03-22T18:17:39.198Z,28.07
2019-03-22T18:20:09.565Z,30.40
2019-03-22T18:22:39.445Z,26.10
2019-03-22T18:25:09.422Z,31.03
2019-03-22T18:27:38.398Z,29.57
2019-03-22T18:30:08.502Z,31.30
2019-03-22T18:32:38.219Z,28.57
2019-03-22T18:35:07.302Z,28.77
2019-03-22T18:37:36.210Z,33.53
2019-03-22T18:40:06.200Z,32.67
2019-03-22T18:42:35.255Z,27.17
2019-03-22T18:45:07.434Z,33.23
2019-03-22T18:47:37.188Z,30.93
2019-03-22T18:50:06.925Z,32.77
2019-03-22T18:52:35.981Z,28.27
2019-03-22T18:55:05.516Z,36.50
2019-03-22T18:57:34.421Z,33.07
2019-03-22T19:00:05.109Z,36.60
2019-03-22T19:02:34.122Z,33.73
2019-03-22T19:05:03.500Z,34.17
2019-03-22T19:07:32.424Z,37.27
2019-03-22T19:10:01.430Z,38.70
2019-03-22T19:12:30.692Z,34.37
2019-03-22T19:14:59.597Z,39.83
2019-03-22T19:17:28.542Z,35.70
2019-03-22T19:19:57.590Z,33.60
2019-03-22T19:22:27.270Z,38.03
2019-03-22T19:24:56.298Z,36.67
2019-03-22T19:27:25.222Z,44.10
2019-03-22T19:29:54.920Z,41.17
2019-03-22T19:32:23.833Z,42.93
2019-03-22T19:34:54.597Z,41.73
2019-03-22T19:37:23.697Z,41.20
2019-03-22T19:39:52.745Z,46.00
2019-03-22T19:42:21.645Z,42.10
2019-03-22T19:44:50.844Z,38.73
2019-03-22T19:47:19.728Z,41.80
2019-03-22T19:49:48.826Z,45.57
2019-03-22T19:52:17.855Z,39.27
2019-03-22T19:54:46.806Z,46.10
2019-03-22T19:57:15.769Z,42.17
2019-03-22T19:59:45.370Z,45.00
2019-03-22T20:02:14.442Z,43.27
2019-03-22T20:04:43.341Z,46.20
2019-03-22T20:07:12.527Z,43.80
2019-03-22T20:09:41.449Z,44.87
2019-03-22T20:12:10.322Z,43.27
2019-03-22T20:14:40.897Z,49.30
2019-03-22T20:17:09.930Z,47.10
2019-03-22T20:19:38.840Z,45.30
2019-03-22T20:22:07.807Z,45.97
2019-03-22T20:24:36.982Z,43.60
2019-03-22T20:27:05.943Z,50.10
2019-03-22T20:29:35.387Z,46.40
2019-03-22T20:32:04.407Z,48.10
2019-03-22T20:34:33.442Z,45.63
2019-03-22T20:37:03.348Z,44.80
2019-03-22T20:39:32.369Z,49.07
2019-03-22T20:42:01.392Z,51.67
2019-03-22T20:44:34.026Z,44.63
2019-03-22T20:47:01.367Z,42.60
2019-03-22T20:49:30.319Z,42.77
2019-03-22T20:51:59.220Z,53.80
2019-03-22T20:54:28.263Z,48.10
2019-03-22T20:56:57.168Z,55.53
2019-03-22T20:59:26.781Z,50.63
2019-03-22T21:01:56.049Z,48.57
2019-03-22T21:04:24.992Z,54.07
2019-03-22T21:06:53.974Z,47.63
2019-03-22T21:09:23.043Z,49.83
2019-03-22T21:11:52.078Z,50.07
2019-03-22T21:14:21.331Z,52.57
2019-03-22T21:16:50.389Z,52.10
2019-03-22T21:19:19.403Z,55.83
2019-03-22T21:21:48.284Z,56.03
2019-03-22T21:24:17.279Z,60.40
2019-03-22T21:26:46.494Z,58.70
2019-03-22T21:29:15.487Z,62.20
2019-03-22T21:31:44.369Z,60.40
2019-03-22T21:34:13.372Z,57.47
2019-03-22T21:36:42.291Z,58.13
2019-03-22T21:39:11.171Z,67.23
2019-03-22T21:41:40.140Z,57.77
2019-03-22T21:44:09.056Z,62.63
2019-03-22T21:46:37.980Z,56.03
2019-03-22T21:49:06.850Z,60.80
2019-03-22T21:51:35.807Z,60.97
2019-03-22T21:54:04.874Z,60.13
2019-03-22T21:56:33.803Z,61.03
2019-03-22T21:59:02.712Z,60.10
2019-03-22T22:01:31.825Z,58.20
2019-03-22T22:04:00.851Z,57.20
2019-03-22T22:06:29.821Z,54.93
2019-03-22T22:08:59.033Z,53.77
2019-03-22T22:11:27.942Z,56.20
2019-03-22T22:13:56.947Z,52.67
2019-03-22T22:16:25.976Z,59.43
2019-03-22T22:18:54.897Z,55.17
2019-03-22T22:21:24.118Z,55.63
2019-03-22T22:23:53.038Z,53.90
2019-03-22T22:26:22.045Z,56.20
2019-03-22T22:28:50.946Z,60.33
2019-03-22T22:31:20.000Z,57.67
2019-03-22T22:33:48.992Z,62.77
2019-03-22T22:36:18.031Z,58.13
2019-03-22T22:38:46.912Z,60.00
2019-03-22T22:41:15.844Z,56.67
2019-03-22T22:43:44.958Z,57.40
2019-03-22T22:46:14.141Z,53.63
2019-03-22T22:48:43.066Z,58.23
2019-03-22T22:51:12.060Z,58.90
2019-03-22T22:53:41.097Z,51.60
2019-03-22T22:56:10.038Z,50.17
2019-03-22T22:58:39.156Z,51.57
2019-03-22T23:01:08.229Z,52.30
2019-03-22T23:03:37.091Z,52.80
2019-03-22T23:06:09.750Z,52.17
2019-03-22T23:08:36.982Z,46.53
2019-03-22T23:11:05.986Z,58.77
2019-03-22T23:13:34.983Z,50.63
2019-03-22T23:16:03.927Z,51.23
2019-03-22T23:18:32.885Z,50.90
2019-03-22T23:21:02.349Z,50.50
2019-03-22T23:23:34.590Z,54.07
2019-03-22T23:26:04.369Z,53.20
2019-03-22T23:28:33.301Z,54.70
2019-03-22T23:31:02.290Z,55.77
2019-03-22T23:33:31.303Z,51.83
2019-03-22T23:36:00.305Z,59.13
2019-03-22T23:38:29.253Z,60.57
2019-03-22T23:40:58.218Z,59.17
2019-03-22T23:43:27.178Z,54.97
2019-03-22T23:45:56.102Z,50.23
2019-03-22T23:48:25.117Z,55.20
2019-03-22T23:50:53.969Z,48.63
2019-03-22T23:53:22.865Z,55.47
2019-03-22T23:55:53.330Z,59.60
2019-03-22T23:58:22.308Z,58.53
